sensor_id;sensor_type;location;lat;lon;timestamp;P1;durP1;ratioP1;P2;durP2;ratioP2
61399;SDS011;47269;48.182;-1.946;2023-03-01T06:02:15;5.38;;;3.85;;
61399;SDS011;47269;48.182;-1.946;2023-03-01T06:04:41;6.85;;;4.25;;
61399;SDS011;47269;48.182;-1.946;2023-03-01T06:07:07;8.65;;;4.45;;
61399;SDS011;47269;48.182;-1.946;2023-03-01T06:09:32;6.93;;;4.17;;
61399;SDS011;47269;48.182;-1.946;2023-03-01T06:11:58;11.13;;;4.55;;
61399;SDS011;47269;48.182;-1.946;2023-03-01T06:14:24;4.53;;;4.00;;
61399;SDS011;47269;48.182;-1.946;2023-03-01T06:16:50;5.80;;;4.22;;
61399;SDS011;47269;48.182;-1.946;2023-03-01T06:19:15;8.15;;;5.25;;
61399;SDS011;47269;48.182;-1.946;2023-03-01T06:21:41;10.50;;;5.87;;
61399;SDS011;47269;48.182;-1.946;2023-03-01T06:24:07;7.63;;;5.07;;
61399;SDS011;47269;48.182;-1.946;2023-03-01T06:26:33;7.10;;;3.65;;
61399;SDS011;47269;48.182;-1.946;2023-03-01T06:28:59;7.70;;;4.97;;
61399;SDS011;47269;48.182;-1.946;2023-03-01T06:31:24;12.13;;;5.18;;
61399;SDS011;47269;48.182;-1.946;2023-03-01T06:33:50;7.95;;;3.90;;
61399;SDS011;47269;48.182;-1.946;2023-03-01T06:36:15;5.25;;;4.82;;
61399;SDS011;47269;48.182;-1.946;2023-03-01T06:38:43;11.20;;;6.85;;
61399;SDS011;47269;48.182;-1.946;2023-03-01T06:41:09;7.13;;;4.70;;
61399;SDS011;47269;48.182;-1.946;2023-03-01T06:43:35;6.03;;;4.60;;
61399;SDS011;47269;48.182;-1.946;2023-03-01T06:46:03;9.90;;;4.20;;
61399;SDS011;47269;48.182;-1.946;2023-03-01T06:48:30;10.32;;;4.45;;
61399;SDS011;47269;48.182;-1.946;2023-03-01T06:50:58;9.02;;;5.13;;
61399;SDS011;47269;48.182;-1.946;2023-03-01T06:53:24;9.73;;;5.32;;
61399;SDS011;47269;48.182;-1.946;2023-03-01T06:55:56;9.57;;;5.00;;
61399;SDS011;47269;48.182;-1.946;2023-03-01T06:58:24;7.95;;;5.40;;
61399;SDS011;47269;48.182;-1.946;2023-03-01T07:00:49;8.23;;;5.55;;
61399;SDS011;47269;48.182;-1.946;2023-03-01T07:03:15;9.75;;;3.67;;
61399;SDS011;47269;48.182;-1.946;2023-03-01T07:05:41;7.45;;;4.07;;
61399;SDS011;47269;48.182;-1.946;2023-03-01T07:08:07;4.78;;;3.95;;
61399;SDS011;47269;48.182;-1.946;2023-03-01T07:10:32;9.43;;;4.35;;
61399;SDS011;47269;48.182;-1.946;2023-03-01T07:12:58;7.40;;;3.80;;
61399;SDS011;47269;48.182;-1.946;2023-03-01T07:15:24;4.38;;;3.65;;
61399;SDS011;47269;48.182;-1.946;2023-03-01T07:17:51;6.00;;;3.17;;
61399;SDS011;47269;48.182;-1.946;2023-03-01T07:20:20;9.03;;;5.70;;
61399;SDS011;47269;48.182;-1.946;2023-03-01T07:22:50;13.30;;;5.03;;
61399;SDS011;47269;48.182;-1.946;2023-03-01T07:25:16;14.53;;;4.50;;
61399;SDS011;47269;48.182;-1.946;2023-03-01T07:27:42;13.40;;;6.13;;
61399;SDS011;47269;48.182;-1.946;2023-03-01T07:30:08;9.00;;;5.03;;
61399;SDS011;47269;48.182;-1.946;2023-03-01T07:32:34;15.35;;;7.30;;
61399;SDS011;47269;48.182;-1.946;2023-03-01T07:35:00;13.40;;;7.03;;
61399;SDS011;47269;48.182;-1.946;2023-03-01T07:37:26;10.93;;;4.68;;
61399;SDS011;47269;48.182;-1.946;2023-03-01T07:39:52;10.57;;;5.28;;
61399;SDS011;47269;48.182;-1.946;2023-03-01T07:42:17;12.33;;;4.57;;
61399;SDS011;47269;48.182;-1.946;2023-03-01T07:44:43;6.88;;;3.67;;
61399;SDS011;47269;48.182;-1.946;2023-03-01T07:47:09;5.43;;;4.07;;
61399;SDS011;47269;48.182;-1.946;2023-03-01T07:49:34;5.67;;;3.90;;
61399;SDS011;47269;48.182;-1.946;2023-03-01T07:52:00;5.93;;;3.53;;
61399;SDS011;47269;48.182;-1.946;2023-03-01T07:54:26;5.50;;;4.05;;
61399;SDS011;47269;48.182;-1.946;2023-03-01T07:56:51;6.15;;;4.03;;
61399;SDS011;47269;48.182;-1.946;2023-03-01T07:59:20;7.95;;;5.10;;
61399;SDS011;47269;48.182;-1.946;2023-03-01T08:01:46;7.20;;;4.07;;
61399;SDS011;47269;48.182;-1.946;2023-03-01T08:04:11;4.72;;;4.07;;
61399;SDS011;47269;48.182;-1.946;2023-03-01T08:06:37;8.82;;;4.63;;
61399;SDS011;47269;48.182;-1.946;2023-03-01T08:09:03;4.05;;;3.00;;
61399;SDS011;47269;48.182;-1.946;2023-03-01T08:11:29;11.30;;;4.88;;
61399;SDS011;47269;48.182;-1.946;2023-03-01T08:13:54;4.53;;;3.17;;
61399;SDS011;47269;48.182;-1.946;2023-03-01T08:16:21;3.58;;;3.28;;
61399;SDS011;47269;48.182;-1.946;2023-03-01T08:18:47;6.32;;;4.80;;
61399;SDS011;47269;48.182;-1.946;2023-03-01T08:21:13;5.75;;;3.30;;
61399;SDS011;47269;48.182;-1.946;2023-03-01T08:23:41;6.53;;;4.82;;
61399;SDS011;47269;48.182;-1.946;2023-03-01T08:26:09;5.38;;;3.78;;
61399;SDS011;47269;48.182;-1.946;2023-03-01T08:28:37;6.63;;;3.22;;
61399;SDS011;47269;48.182;-1.946;2023-03-01T08:31:13;9.40;;;3.43;;
61399;SDS011;47269;48.182;-1.946;2023-03-01T08:33:39;4.40;;;3.20;;
61399;SDS011;47269;48.182;-1.946;2023-03-01T08:36:05;6.70;;;4.05;;
61399;SDS011;47269;48.182;-1.946;2023-03-01T08:38:32;15.33;;;6.83;;
61399;SDS011;47269;48.182;-1.946;2023-03-01T08:41:02;4.33;;;3.93;;
61399;SDS011;47269;48.182;-1.946;2023-03-01T08:43:28;5.40;;;4.55;;
61399;SDS011;47269;48.182;-1.946;2023-03-01T08:45:54;5.22;;;2.60;;
61399;SDS011;47269;48.182;-1.946;2023-03-01T08:51:18;8.43;;;5.32;;
61399;SDS011;47269;48.182;-1.946;2023-03-01T08:53:49;10.48;;;5.15;;
61399;SDS011;47269;48.182;-1.946;2023-03-01T08:56:23;10.50;;;6.20;;
61399;SDS011;47269;48.182;-1.946;2023-03-01T08:58:49;7.07;;;5.05;;
61399;SDS011;47269;48.182;-1.946;2023-03-01T09:01:16;9.20;;;6.20;;
61399;SDS011;47269;48.182;-1.946;2023-03-01T09:03:43;9.95;;;6.28;;
61399;SDS011;47269;48.182;-1.946;2023-03-01T09:06:10;11.05;;;5.40;;
61399;SDS011;47269;48.182;-1.946;2023-03-01T09:08:48;9.25;;;4.50;;
61399;SDS011;47269;48.182;-1.946;2023-03-01T09:11:16;11.65;;;5.35;;
61399;SDS011;47269;48.182;-1.946;2023-03-01T09:13:49;12.88;;;7.88;;
61399;SDS011;47269;48.182;-1.946;2023-03-01T09:16:18;11.15;;;6.85;;
61399;SDS011;47269;48.182;-1.946;2023-03-01T09:18:48;9.32;;;6.10;;
61399;SDS011;47269;48.182;-1.946;2023-03-01T09:21:21;10.07;;;6.07;;
61399;SDS011;47269;48.182;-1.946;2023-03-01T09:23:48;9.45;;;4.88;;
61399;SDS011;47269;48.182;-1.946;2023-03-01T09:29:11;10.25;;;5.85;;
61399;SDS011;47269;48.182;-1.946;2023-03-01T09:31:47;11.95;;;4.57;;
61399;SDS011;47269;48.182;-1.946;2023-03-01T09:34:13;13.70;;;7.07;;
61399;SDS011;47269;48.182;-1.946;2023-03-01T09:36:44;19.13;;;7.65;;
61399;SDS011;47269;48.182;-1.946;2023-03-01T09:39:10;12.02;;;5.88;;
61399;SDS011;47269;48.182;-1.946;2023-03-01T09:41:46;12.68;;;7.25;;
61399;SDS011;47269;48.182;-1.946;2023-03-01T09:47:00;14.98;;;7.35;;
61399;SDS011;47269;48.182;-1.946;2023-03-01T09:51:58;12.13;;;6.05;;
61399;SDS011;47269;48.182;-1.946;2023-03-01T09:54:28;10.80;;;6.60;;
61399;SDS011;47269;48.182;-1.946;2023-03-01T09:57:01;14.35;;;6.88;;
61399;SDS011;47269;48.182;-1.946;2023-03-01T10:10:40;16.02;;;8.57;;
61399;SDS011;47269;48.182;-1.946;2023-03-01T10:15:50;18.83;;;8.82;;
61399;SDS011;47269;48.182;-1.946;2023-03-01T10:18:29;17.48;;;9.20;;
61399;SDS011;47269;48.182;-1.946;2023-03-01T10:21:01;19.45;;;8.98;;
61399;SDS011;47269;48.182;-1.946;2023-03-01T10:23:34;19.63;;;11.02;;
61399;SDS011;47269;48.182;-1.946;2023-03-01T10:31:29;17.90;;;10.52;;
61399;SDS011;47269;48.182;-1.946;2023-03-01T10:34:13;16.80;;;10.02;;
61399;SDS011;47269;48.182;-1.946;2023-03-01T10:36:42;16.48;;;9.55;;
61399;SDS011;47269;48.182;-1.946;2023-03-01T10:39:17;19.65;;;10.63;;
61399;SDS011;47269;48.182;-1.946;2023-03-01T10:47:42;18.73;;;10.90;;
61399;SDS011;47269;48.182;-1.946;2023-03-01T10:50:19;21.60;;;10.70;;
61399;SDS011;47269;48.182;-1.946;2023-03-01T10:53:02;22.38;;;12.60;;
61399;SDS011;47269;48.182;-1.946;2023-03-01T10:58:20;21.42;;;11.35;;
61399;SDS011;47269;48.182;-1.946;2023-03-01T11:03:17;17.45;;;10.95;;
61399;SDS011;47269;48.182;-1.946;2023-03-01T11:08:43;20.00;;;12.27;;
61399;SDS011;47269;48.182;-1.946;2023-03-01T11:14:06;24.77;;;12.93;;
61399;SDS011;47269;48.182;-1.946;2023-03-01T11:16:36;21.05;;;13.07;;
61399;SDS011;47269;48.182;-1.946;2023-03-01T11:21:38;20.65;;;11.98;;
61399;SDS011;47269;48.182;-1.946;2023-03-01T11:24:20;25.00;;;14.18;;
61399;SDS011;47269;48.182;-1.946;2023-03-01T11:27:14;20.92;;;13.02;;
61399;SDS011;47269;48.182;-1.946;2023-03-01T11:29:45;17.50;;;11.18;;
61399;SDS011;47269;48.182;-1.946;2023-03-01T11:32:16;19.73;;;13.32;;
61399;SDS011;47269;48.182;-1.946;2023-03-01T11:35:05;17.80;;;11.98;;
61399;SDS011;47269;48.182;-1.946;2023-03-01T11:38:26;22.90;;;14.13;;
61399;SDS011;47269;48.182;-1.946;2023-03-01T11:54:18;21.83;;;12.70;;
61399;SDS011;47269;48.182;-1.946;2023-03-01T11:56:47;20.67;;;13.45;;
61399;SDS011;47269;48.182;-1.946;2023-03-01T12:07:01;20.52;;;13.07;;
61399;SDS011;47269;48.182;-1.946;2023-03-01T12:24:10;18.98;;;12.65;;
61399;SDS011;47269;48.182;-1.946;2023-03-01T12:37:56;15.90;;;10.80;;
61399;SDS011;47269;48.182;-1.946;2023-03-01T12:49:37;13.18;;;7.47;;
61399;SDS011;47269;48.182;-1.946;2023-03-01T12:55:36;12.70;;;8.27;;
61399;SDS011;47269;48.182;-1.946;2023-03-01T12:58:15;11.93;;;7.20;;
61399;SDS011;47269;48.182;-1.946;2023-03-01T13:01:03;11.65;;;7.57;;
61399;SDS011;47269;48.182;-1.946;2023-03-01T13:08:58;10.43;;;6.50;;
61399;SDS011;47269;48.182;-1.946;2023-03-01T13:11:29;10.05;;;6.95;;
61399;SDS011;47269;48.182;-1.946;2023-03-01T13:16:45;11.80;;;7.00;;
61399;SDS011;47269;48.182;-1.946;2023-03-01T13:19:21;11.35;;;6.80;;
61399;SDS011;47269;48.182;-1.946;2023-03-01T13:21:48;11.30;;;6.65;;
61399;SDS011;47269;48.182;-1.946;2023-03-01T13:32:52;11.32;;;7.57;;
61399;SDS011;47269;48.182;-1.946;2023-03-01T13:37:44;12.43;;;8.38;;
61399;SDS011;47269;48.182;-1.946;2023-03-01T13:40:56;13.38;;;7.88;;
61399;SDS011;47269;48.182;-1.946;2023-03-01T13:42:56;12.18;;;7.63;;
61399;SDS011;47269;48.182;-1.946;2023-03-01T13:45:25;11.25;;;7.45;;
61399;SDS011;47269;48.182;-1.946;2023-03-01T13:48:02;13.95;;;8.63;;
61399;SDS011;47269;48.182;-1.946;2023-03-01T13:50:45;12.18;;;7.43;;
61399;SDS011;47269;48.182;-1.946;2023-03-01T13:53:16;16.20;;;8.63;;
61399;SDS011;47269;48.182;-1.946;2023-03-01T13:58:21;11.32;;;8.25;;
61399;SDS011;47269;48.182;-1.946;2023-03-01T14:01:03;14.57;;;8.85;;
61399;SDS011;47269;48.182;-1.946;2023-03-01T14:03:31;13.13;;;8.95;;
61399;SDS011;47269;48.182;-1.946;2023-03-01T14:06:14;12.73;;;8.52;;
61399;SDS011;47269;48.182;-1.946;2023-03-01T14:08:44;14.23;;;8.35;;
61399;SDS011;47269;48.182;-1.946;2023-03-01T14:19:22;11.85;;;8.50;;
61399;SDS011;47269;48.182;-1.946;2023-03-01T14:24:49;11.77;;;7.78;;
61399;SDS011;47269;48.182;-1.946;2023-03-01T14:27:16;11.50;;;8.03;;
61399;SDS011;47269;48.182;-1.946;2023-03-01T14:29:43;11.10;;;6.88;;
61399;SDS011;47269;48.182;-1.946;2023-03-01T14:32:21;10.43;;;6.97;;
61399;SDS011;47269;48.182;-1.946;2023-03-01T14:34:51;10.30;;;7.50;;
61399;SDS011;47269;48.182;-1.946;2023-03-01T14:37:21;10.75;;;7.07;;
61399;SDS011;47269;48.182;-1.946;2023-03-01T14:39:52;11.30;;;6.78;;
61399;SDS011;47269;48.182;-1.946;2023-03-01T14:42:19;11.18;;;6.68;;
61399;SDS011;47269;48.182;-1.946;2023-03-01T14:44:47;12.48;;;7.95;;
61399;SDS011;47269;48.182;-1.946;2023-03-01T14:49:55;9.95;;;7.03;;
61399;SDS011;47269;48.182;-1.946;2023-03-01T14:52:36;11.73;;;8.27;;
61399;SDS011;47269;48.182;-1.946;2023-03-01T14:55:05;12.13;;;8.07;;
61399;SDS011;47269;48.182;-1.946;2023-03-01T14:57:42;12.00;;;7.90;;
61399;SDS011;47269;48.182;-1.946;2023-03-01T15:00:10;10.32;;;6.93;;
61399;SDS011;47269;48.182;-1.946;2023-03-01T15:02:47;11.60;;;6.65;;
61399;SDS011;47269;48.182;-1.946;2023-03-01T15:05:15;11.98;;;7.35;;
61399;SDS011;47269;48.182;-1.946;2023-03-01T15:07:50;10.60;;;6.72;;
61399;SDS011;47269;48.182;-1.946;2023-03-01T15:10:24;10.32;;;6.80;;
61399;SDS011;47269;48.182;-1.946;2023-03-01T15:12:52;10.50;;;6.85;;
61399;SDS011;47269;48.182;-1.946;2023-03-01T15:17:58;12.93;;;7.22;;
61399;SDS011;47269;48.182;-1.946;2023-03-01T15:20:27;13.82;;;8.05;;
61399;SDS011;47269;48.182;-1.946;2023-03-01T15:22:55;13.57;;;7.68;;
61399;SDS011;47269;48.182;-1.946;2023-03-01T15:25:23;14.15;;;7.65;;
61399;SDS011;47269;48.182;-1.946;2023-03-01T15:27:53;11.88;;;7.97;;
61399;SDS011;47269;48.182;-1.946;2023-03-01T15:30:21;9.88;;;7.53;;
61399;SDS011;47269;48.182;-1.946;2023-03-01T15:33:15;11.60;;;8.18;;
61399;SDS011;47269;48.182;-1.946;2023-03-01T15:38:59;13.00;;;8.05;;
61399;SDS011;47269;48.182;-1.946;2023-03-01T15:41:30;12.30;;;7.68;;
61399;SDS011;47269;48.182;-1.946;2023-03-01T15:43:57;13.02;;;8.05;;
61399;SDS011;47269;48.182;-1.946;2023-03-01T15:49:04;14.60;;;8.20;;
61399;SDS011;47269;48.182;-1.946;2023-03-01T15:51:43;13.43;;;8.13;;
61399;SDS011;47269;48.182;-1.946;2023-03-01T15:54:18;15.27;;;9.68;;
61399;SDS011;47269;48.182;-1.946;2023-03-01T15:56:45;14.43;;;9.07;;
61399;SDS011;47269;48.182;-1.946;2023-03-01T15:59:11;15.02;;;9.05;;
61399;SDS011;47269;48.182;-1.946;2023-03-01T16:01:39;13.35;;;8.40;;
61399;SDS011;47269;48.182;-1.946;2023-03-01T16:04:05;18.55;;;9.82;;
61399;SDS011;47269;48.182;-1.946;2023-03-01T16:06:31;17.58;;;9.25;;
61399;SDS011;47269;48.182;-1.946;2023-03-01T16:08:56;14.68;;;9.48;;
61399;SDS011;47269;48.182;-1.946;2023-03-01T16:11:22;14.35;;;8.80;;
61399;SDS011;47269;48.182;-1.946;2023-03-01T16:13:48;15.75;;;9.30;;
61399;SDS011;47269;48.182;-1.946;2023-03-01T16:16:15;14.68;;;8.93;;
61399;SDS011;47269;48.182;-1.946;2023-03-01T16:18:45;15.20;;;9.57;;
61399;SDS011;47269;48.182;-1.946;2023-03-01T16:21:12;17.05;;;9.05;;
61399;SDS011;47269;48.182;-1.946;2023-03-01T16:23:41;18.08;;;9.25;;
61399;SDS011;47269;48.182;-1.946;2023-03-01T16:26:07;17.45;;;8.93;;
61399;SDS011;47269;48.182;-1.946;2023-03-01T16:28:33;16.10;;;9.20;;
61399;SDS011;47269;48.182;-1.946;2023-03-01T16:30:59;16.85;;;8.45;;
61399;SDS011;47269;48.182;-1.946;2023-03-01T16:33:26;17.83;;;8.73;;
61399;SDS011;47269;48.182;-1.946;2023-03-01T16:35:52;17.63;;;8.40;;
61399;SDS011;47269;48.182;-1.946;2023-03-01T16:38:18;14.18;;;8.98;;
61399;SDS011;47269;48.182;-1.946;2023-03-01T16:40:46;15.65;;;8.77;;
61399;SDS011;47269;48.182;-1.946;2023-03-01T16:43:13;15.40;;;7.75;;
61399;SDS011;47269;48.182;-1.946;2023-03-01T16:45:39;13.93;;;7.85;;
61399;SDS011;47269;48.182;-1.946;2023-03-01T16:48:09;16.47;;;9.03;;
61399;SDS011;47269;48.182;-1.946;2023-03-01T16:50:35;13.48;;;8.13;;
61399;SDS011;47269;48.182;-1.946;2023-03-01T16:53:01;16.83;;;8.88;;
61399;SDS011;47269;48.182;-1.946;2023-03-01T16:55:27;16.48;;;10.13;;
61399;SDS011;47269;48.182;-1.946;2023-03-01T16:57:53;16.45;;;8.30;;
61399;SDS011;47269;48.182;-1.946;2023-03-01T17:00:19;13.35;;;7.45;;
61399;SDS011;47269;48.182;-1.946;2023-03-01T17:02:45;14.85;;;8.32;;
61399;SDS011;47269;48.182;-1.946;2023-03-01T17:05:11;15.32;;;7.60;;
61399;SDS011;47269;48.182;-1.946;2023-03-01T17:07:37;15.35;;;7.80;;
61399;SDS011;47269;48.182;-1.946;2023-03-01T17:10:04;15.23;;;8.07;;
61399;SDS011;47269;48.182;-1.946;2023-03-01T17:12:33;14.68;;;7.43;;
61399;SDS011;47269;48.182;-1.946;2023-03-01T17:14:59;12.30;;;7.40;;
61399;SDS011;47269;48.182;-1.946;2023-03-01T17:17:25;12.57;;;6.25;;
61399;SDS011;47269;48.182;-1.946;2023-03-01T17:19:51;15.15;;;7.82;;
61399;SDS011;47269;48.182;-1.946;2023-03-01T17:22:18;16.13;;;7.15;;
61399;SDS011;47269;48.182;-1.946;2023-03-01T17:24:44;10.68;;;6.30;;
61399;SDS011;47269;48.182;-1.946;2023-03-01T17:27:10;11.35;;;5.93;;
61399;SDS011;47269;48.182;-1.946;2023-03-01T17:29:37;11.98;;;6.65;;
61399;SDS011;47269;48.182;-1.946;2023-03-01T17:32:03;11.52;;;5.93;;
61399;SDS011;47269;48.182;-1.946;2023-03-01T17:34:30;9.80;;;6.43;;
61399;SDS011;47269;48.182;-1.946;2023-03-01T17:36:57;12.15;;;6.65;;
61399;SDS011;47269;48.182;-1.946;2023-03-01T17:39:23;12.43;;;6.22;;
61399;SDS011;47269;48.182;-1.946;2023-03-01T17:41:52;7.53;;;4.90;;
61399;SDS011;47269;48.182;-1.946;2023-03-01T17:44:18;9.77;;;5.38;;
61399;SDS011;47269;48.182;-1.946;2023-03-01T17:46:47;9.15;;;5.82;;
61399;SDS011;47269;48.182;-1.946;2023-03-01T17:49:12;15.65;;;6.68;;
61399;SDS011;47269;48.182;-1.946;2023-03-01T17:51:38;10.77;;;5.38;;
61399;SDS011;47269;48.182;-1.946;2023-03-01T17:54:04;9.88;;;4.72;;
61399;SDS011;47269;48.182;-1.946;2023-03-01T17:56:30;14.55;;;8.15;;
61399;SDS011;47269;48.182;-1.946;2023-03-01T17:58:58;11.65;;;5.32;;
61399;SDS011;47269;48.182;-1.946;2023-03-01T18:01:24;10.25;;;5.47;;
61399;SDS011;47269;48.182;-1.946;2023-03-01T18:03:53;10.95;;;5.93;;
61399;SDS011;47269;48.182;-1.946;2023-03-01T18:06:20;8.93;;;4.85;;
61399;SDS011;47269;48.182;-1.946;2023-03-01T18:08:47;23.45;;;6.75;;
61399;SDS011;47269;48.182;-1.946;2023-03-01T18:11:15;9.48;;;5.68;;
61399;SDS011;47269;48.182;-1.946;2023-03-01T18:13:41;14.60;;;6.88;;
61399;SDS011;47269;48.182;-1.946;2023-03-01T18:16:08;10.38;;;5.45;;
61399;SDS011;47269;48.182;-1.946;2023-03-01T18:18:36;11.10;;;6.90;;
61399;SDS011;47269;48.182;-1.946;2023-03-01T18:21:03;15.82;;;9.02;;
61399;SDS011;47269;48.182;-1.946;2023-03-01T18:23:29;13.40;;;8.25;;
61399;SDS011;47269;48.182;-1.946;2023-03-01T18:25:57;11.18;;;6.18;;
61399;SDS011;47269;48.182;-1.946;2023-03-01T18:28:25;13.88;;;7.88;;
61399;SDS011;47269;48.182;-1.946;2023-03-01T18:30:55;11.02;;;7.97;;
61399;SDS011;47269;48.182;-1.946;2023-03-01T18:33:22;12.75;;;6.90;;
61399;SDS011;47269;48.182;-1.946;2023-03-01T18:35:47;15.85;;;7.55;;
61399;SDS011;47269;48.182;-1.946;2023-03-01T18:38:14;10.98;;;6.68;;
61399;SDS011;47269;48.182;-1.946;2023-03-01T18:40:41;14.98;;;6.75;;
61399;SDS011;47269;48.182;-1.946;2023-03-01T18:43:07;14.95;;;8.27;;
61399;SDS011;47269;48.182;-1.946;2023-03-01T18:45:32;20.90;;;12.85;;
61399;SDS011;47269;48.182;-1.946;2023-03-01T18:47:58;13.07;;;6.07;;
61399;SDS011;47269;48.182;-1.946;2023-03-01T18:50:24;14.30;;;8.52;;
61399;SDS011;47269;48.182;-1.946;2023-03-01T18:52:50;10.90;;;6.55;;
61399;SDS011;47269;48.182;-1.946;2023-03-01T18:55:16;16.38;;;10.07;;
61399;SDS011;47269;48.182;-1.946;2023-03-01T18:57:41;22.23;;;10.98;;
61399;SDS011;47269;48.182;-1.946;2023-03-01T19:00:08;16.02;;;9.25;;
61399;SDS011;47269;48.182;-1.946;2023-03-01T19:02:34;16.42;;;8.90;;
61399;SDS011;47269;48.182;-1.946;2023-03-01T19:04:59;13.57;;;8.60;;
61399;SDS011;47269;48.182;-1.946;2023-03-01T19:07:25;14.25;;;7.85;;
61399;SDS011;47269;48.182;-1.946;2023-03-01T19:09:51;11.93;;;6.72;;
61399;SDS011;47269;48.182;-1.946;2023-03-01T19:12:16;11.43;;;5.82;;
61399;SDS011;47269;48.182;-1.946;2023-03-01T19:14:42;10.25;;;6.25;;
61399;SDS011;47269;48.182;-1.946;2023-03-01T19:17:08;7.32;;;5.82;;
61399;SDS011;47269;48.182;-1.946;2023-03-01T19:19:33;9.50;;;5.28;;
61399;SDS011;47269;48.182;-1.946;2023-03-01T19:22:00;11.68;;;6.68;;
61399;SDS011;47269;48.182;-1.946;2023-03-01T19:24:26;8.45;;;4.60;;
61399;SDS011;47269;48.182;-1.946;2023-03-01T19:26:55;11.90;;;6.97;;
61399;SDS011;47269;48.182;-1.946;2023-03-01T19:29:21;7.28;;;4.38;;
61399;SDS011;47269;48.182;-1.946;2023-03-01T19:31:47;9.25;;;5.55;;
61399;SDS011;47269;48.182;-1.946;2023-03-01T19:34:13;9.30;;;4.57;;
61399;SDS011;47269;48.182;-1.946;2023-03-01T19:36:39;10.88;;;5.82;;
61399;SDS011;47269;48.182;-1.946;2023-03-01T19:39:06;11.05;;;5.65;;
61399;SDS011;47269;48.182;-1.946;2023-03-01T19:41:32;8.52;;;5.43;;
61399;SDS011;47269;48.182;-1.946;2023-03-01T19:43:58;12.38;;;6.75;;
61399;SDS011;47269;48.182;-1.946;2023-03-01T19:46:28;14.95;;;6.22;;
61399;SDS011;47269;48.182;-1.946;2023-03-01T19:48:54;13.88;;;7.30;;
61399;SDS011;47269;48.182;-1.946;2023-03-01T19:51:20;6.70;;;5.57;;
61399;SDS011;47269;48.182;-1.946;2023-03-01T19:53:46;8.75;;;6.22;;
61399;SDS011;47269;48.182;-1.946;2023-03-01T19:56:13;6.40;;;4.03;;
61399;SDS011;47269;48.182;-1.946;2023-03-01T19:58:38;10.10;;;5.07;;
61399;SDS011;47269;48.182;-1.946;2023-03-01T20:01:04;9.82;;;5.22;;
61399;SDS011;47269;48.182;-1.946;2023-03-01T20:03:38;14.20;;;4.55;;
61399;SDS011;47269;48.182;-1.946;2023-03-01T20:06:11;12.15;;;5.47;;
61399;SDS011;47269;48.182;-1.946;2023-03-01T20:11:11;8.25;;;4.15;;
61399;SDS011;47269;48.182;-1.946;2023-03-01T20:13:38;10.63;;;4.85;;
61399;SDS011;47269;48.182;-1.946;2023-03-01T20:16:04;8.93;;;4.18;;
61399;SDS011;47269;48.182;-1.946;2023-03-01T20:18:30;12.07;;;6.25;;
61399;SDS011;47269;48.182;-1.946;2023-03-01T20:20:57;7.25;;;3.67;;
61399;SDS011;47269;48.182;-1.946;2023-03-01T20:23:23;9.20;;;4.40;;
61399;SDS011;47269;48.182;-1.946;2023-03-01T20:25:49;11.95;;;4.63;;
61399;SDS011;47269;48.182;-1.946;2023-03-01T20:28:16;8.82;;;4.63;;
61399;SDS011;47269;48.182;-1.946;2023-03-01T20:30:43;6.68;;;4.55;;
61399;SDS011;47269;48.182;-1.946;2023-03-01T20:33:09;21.77;;;5.07;;
61399;SDS011;47269;48.182;-1.946;2023-03-01T20:35:35;13.15;;;5.25;;
61399;SDS011;47269;48.182;-1.946;2023-03-01T20:38:01;9.45;;;4.85;;
61399;SDS011;47269;48.182;-1.946;2023-03-01T20:40:27;9.07;;;5.88;;
61399;SDS011;47269;48.182;-1.946;2023-03-01T20:42:53;9.85;;;5.00;;
61399;SDS011;47269;48.182;-1.946;2023-03-01T20:45:20;10.88;;;5.05;;
61399;SDS011;47269;48.182;-1.946;2023-03-01T20:47:46;7.00;;;3.85;;
61399;SDS011;47269;48.182;-1.946;2023-03-01T20:50:13;5.75;;;4.38;;
61399;SDS011;47269;48.182;-1.946;2023-03-01T20:52:40;8.50;;;3.95;;
61399;SDS011;47269;48.182;-1.946;2023-03-01T20:55:06;8.45;;;4.60;;
61399;SDS011;47269;48.182;-1.946;2023-03-01T20:57:32;9.48;;;2.83;;
61399;SDS011;47269;48.182;-1.946;2023-03-01T20:59:59;6.88;;;3.47;;
61399;SDS011;47269;48.182;-1.946;2023-03-01T21:02:24;6.63;;;4.20;;
61399;SDS011;47269;48.182;-1.946;2023-03-01T21:04:50;6.82;;;2.50;;
61399;SDS011;47269;48.182;-1.946;2023-03-01T21:07:16;9.93;;;4.32;;
61399;SDS011;47269;48.182;-1.946;2023-03-01T21:09:42;10.13;;;5.18;;
61399;SDS011;47269;48.182;-1.946;2023-03-01T21:12:09;5.15;;;3.05;;
61399;SDS011;47269;48.182;-1.946;2023-03-01T21:14:35;11.18;;;5.60;;
61399;SDS011;47269;48.182;-1.946;2023-03-01T21:19:41;8.57;;;2.85;;
61399;SDS011;47269;48.182;-1.946;2023-03-01T21:22:09;6.78;;;3.72;;
61399;SDS011;47269;48.182;-1.946;2023-03-01T21:24:36;8.60;;;3.65;;
61399;SDS011;47269;48.182;-1.946;2023-03-01T21:27:01;9.50;;;4.90;;
61399;SDS011;47269;48.182;-1.946;2023-03-01T21:29:31;9.68;;;5.38;;
61399;SDS011;47269;48.182;-1.946;2023-03-01T21:31:58;6.38;;;3.78;;
61399;SDS011;47269;48.182;-1.946;2023-03-01T21:34:24;7.00;;;2.95;;
61399;SDS011;47269;48.182;-1.946;2023-03-01T21:36:49;7.22;;;3.58;;
61399;SDS011;47269;48.182;-1.946;2023-03-01T21:39:15;4.50;;;3.05;;
61399;SDS011;47269;48.182;-1.946;2023-03-01T21:41:41;13.32;;;5.30;;
61399;SDS011;47269;48.182;-1.946;2023-03-01T21:44:06;6.88;;;3.95;;
61399;SDS011;47269;48.182;-1.946;2023-03-01T21:46:34;5.93;;;3.53;;
61399;SDS011;47269;48.182;-1.946;2023-03-01T21:49:02;5.40;;;3.20;;
61399;SDS011;47269;48.182;-1.946;2023-03-01T21:51:29;6.45;;;4.30;;
61399;SDS011;47269;48.182;-1.946;2023-03-01T21:53:56;9.55;;;4.85;;
61399;SDS011;47269;48.182;-1.946;2023-03-01T21:56:23;8.38;;;4.07;;
61399;SDS011;47269;48.182;-1.946;2023-03-01T21:58:51;5.40;;;3.25;;
61399;SDS011;47269;48.182;-1.946;2023-03-01T22:01:17;4.05;;;3.45;;
61399;SDS011;47269;48.182;-1.946;2023-03-01T22:03:48;5.07;;;2.95;;
61399;SDS011;47269;48.182;-1.946;2023-03-01T22:06:15;14.02;;;4.40;;
61399;SDS011;47269;48.182;-1.946;2023-03-01T22:08:49;8.00;;;4.43;;
61399;SDS011;47269;48.182;-1.946;2023-03-01T22:11:16;6.47;;;4.13;;
61399;SDS011;47269;48.182;-1.946;2023-03-01T22:13:43;4.90;;;2.80;;
61399;SDS011;47269;48.182;-1.946;2023-03-01T22:16:15;8.43;;;4.07;;
61399;SDS011;47269;48.182;-1.946;2023-03-01T22:18:46;5.32;;;3.72;;
61399;SDS011;47269;48.182;-1.946;2023-03-01T22:21:12;7.65;;;4.95;;
61399;SDS011;47269;48.182;-1.946;2023-03-01T22:23:38;6.15;;;3.40;;
61399;SDS011;47269;48.182;-1.946;2023-03-01T22:26:04;8.75;;;3.45;;
61399;SDS011;47269;48.182;-1.946;2023-03-01T22:28:31;5.93;;;3.28;;
61399;SDS011;47269;48.182;-1.946;2023-03-01T22:31:01;8.63;;;4.05;;
61399;SDS011;47269;48.182;-1.946;2023-03-01T22:33:27;6.27;;;4.47;;
61399;SDS011;47269;48.182;-1.946;2023-03-01T22:35:56;7.05;;;5.13;;
61399;SDS011;47269;48.182;-1.946;2023-03-01T22:38:21;5.30;;;3.45;;
61399;SDS011;47269;48.182;-1.946;2023-03-01T22:41:00;10.98;;;3.38;;
61399;SDS011;47269;48.182;-1.946;2023-03-01T22:43:28;6.05;;;3.88;;
61399;SDS011;47269;48.182;-1.946;2023-03-01T22:45:55;5.47;;;3.08;;
61399;SDS011;47269;48.182;-1.946;2023-03-01T22:48:21;11.32;;;6.20;;
61399;SDS011;47269;48.182;-1.946;2023-03-01T22:50:47;4.25;;;3.15;;
61399;SDS011;47269;48.182;-1.946;2023-03-01T22:53:13;5.53;;;3.10;;
61399;SDS011;47269;48.182;-1.946;2023-03-01T22:55:39;4.10;;;3.30;;
61399;SDS011;47269;48.182;-1.946;2023-03-01T22:58:05;10.30;;;5.07;;
